sensor_id;sensor_type;location;lat;lon;timestamp;P1;durP1;ratioP1;P2;durP2;ratioP2
36189;SDS011;22232;50.914;13.858;2023-09-19T00:00:44;5.40;;;2.30;;
36189;SDS011;22232;50.914;13.858;2023-09-19T00:03:15;4.57;;;2.20;;
36189;SDS011;22232;50.914;13.858;2023-09-19T00:05:43;4.40;;;2.50;;
36189;SDS011;22232;50.914;13.858;2023-09-19T00:08:12;3.85;;;2.25;;
36189;SDS011;22232;50.914;13.858;2023-09-19T00:10:43;2.50;;;1.90;;
36189;SDS011;22232;50.914;13.858;2023-09-19T00:13:11;3.33;;;2.00;;
36189;SDS011;22232;50.914;13.858;2023-09-19T00:15:43;5.20;;;2.03;;
36189;SDS011;22232;50.914;13.858;2023-09-19T00:18:18;3.67;;;1.90;;
36189;SDS011;22232;50.914;13.858;2023-09-19T00:20:51;2.45;;;1.58;;
36189;SDS011;22232;50.914;13.858;2023-09-19T00:23:19;4.63;;;2.13;;
36189;SDS011;22232;50.914;13.858;2023-09-19T00:25:47;2.05;;;1.38;;
36189;SDS011;22232;50.914;13.858;2023-09-19T00:28:16;1.58;;;1.25;;
36189;SDS011;22232;50.914;13.858;2023-09-19T00:30:45;5.15;;;1.70;;
36189;SDS011;22232;50.914;13.858;2023-09-19T00:33:20;7.50;;;1.92;;
36189;SDS011;22232;50.914;13.858;2023-09-19T00:35:49;3.97;;;1.98;;
36189;SDS011;22232;50.914;13.858;2023-09-19T00:38:18;4.20;;;1.90;;
36189;SDS011;22232;50.914;13.858;2023-09-19T00:40:49;4.10;;;2.03;;
36189;SDS011;22232;50.914;13.858;2023-09-19T00:43:20;4.15;;;1.80;;
36189;SDS011;22232;50.914;13.858;2023-09-19T00:45:49;3.22;;;1.80;;
36189;SDS011;22232;50.914;13.858;2023-09-19T00:48:22;6.80;;;1.85;;
36189;SDS011;22232;50.914;13.858;2023-09-19T00:50:52;4.28;;;1.90;;
36189;SDS011;22232;50.914;13.858;2023-09-19T00:53:21;4.60;;;1.90;;
36189;SDS011;22232;50.914;13.858;2023-09-19T00:55:53;2.80;;;1.75;;
36189;SDS011;22232;50.914;13.858;2023-09-19T00:58:23;1.75;;;1.60;;
36189;SDS011;22232;50.914;13.858;2023-09-19T01:00:51;3.83;;;1.73;;
36189;SDS011;22232;50.914;13.858;2023-09-19T01:03:20;3.15;;;1.40;;
36189;SDS011;22232;50.914;13.858;2023-09-19T01:05:50;4.57;;;1.70;;
36189;SDS011;22232;50.914;13.858;2023-09-19T01:08:19;4.85;;;1.30;;
36189;SDS011;22232;50.914;13.858;2023-09-19T01:10:51;3.20;;;1.85;;
36189;SDS011;22232;50.914;13.858;2023-09-19T01:13:34;1.88;;;1.25;;
36189;SDS011;22232;50.914;13.858;2023-09-19T01:19:01;4.60;;;1.60;;
36189;SDS011;22232;50.914;13.858;2023-09-19T01:32:06;5.03;;;1.70;;
36189;SDS011;22232;50.914;13.858;2023-09-19T01:37:40;2.53;;;1.48;;
36189;SDS011;22232;50.914;13.858;2023-09-19T01:40:12;4.20;;;1.52;;
36189;SDS011;22232;50.914;13.858;2023-09-19T01:43:08;3.63;;;1.35;;
36189;SDS011;22232;50.914;13.858;2023-09-19T01:48:42;3.17;;;1.88;;
36189;SDS011;22232;50.914;13.858;2023-09-19T01:54:34;3.63;;;1.50;;
36189;SDS011;22232;50.914;13.858;2023-09-19T02:00:03;4.35;;;1.45;;
36189;SDS011;22232;50.914;13.858;2023-09-19T02:02:42;2.35;;;1.50;;
36189;SDS011;22232;50.914;13.858;2023-09-19T02:05:11;2.72;;;1.60;;
36189;SDS011;22232;50.914;13.858;2023-09-19T02:07:39;3.25;;;1.38;;
36189;SDS011;22232;50.914;13.858;2023-09-19T02:10:08;4.40;;;1.50;;
36189;SDS011;22232;50.914;13.858;2023-09-19T02:12:37;5.03;;;1.35;;
36189;SDS011;22232;50.914;13.858;2023-09-19T02:15:05;2.38;;;1.20;;
36189;SDS011;22232;50.914;13.858;2023-09-19T02:17:34;3.20;;;1.10;;
36189;SDS011;22232;50.914;13.858;2023-09-19T02:20:02;4.15;;;1.42;;
36189;SDS011;22232;50.914;13.858;2023-09-19T02:22:37;2.17;;;1.05;;
36189;SDS011;22232;50.914;13.858;2023-09-19T02:25:06;1.73;;;1.20;;
36189;SDS011;22232;50.914;13.858;2023-09-19T02:27:35;1.98;;;0.90;;
36189;SDS011;22232;50.914;13.858;2023-09-19T02:30:04;1.20;;;1.10;;
36189;SDS011;22232;50.914;13.858;2023-09-19T02:32:33;3.05;;;1.20;;
36189;SDS011;22232;50.914;13.858;2023-09-19T02:35:03;1.10;;;1.00;;
36189;SDS011;22232;50.914;13.858;2023-09-19T02:37:32;3.22;;;1.25;;
36189;SDS011;22232;50.914;13.858;2023-09-19T02:40:00;2.42;;;1.30;;
36189;SDS011;22232;50.914;13.858;2023-09-19T02:42:28;3.33;;;1.10;;
36189;SDS011;22232;50.914;13.858;2023-09-19T02:44:56;1.85;;;1.20;;
36189;SDS011;22232;50.914;13.858;2023-09-19T02:47:24;1.08;;;0.98;;
36189;SDS011;22232;50.914;13.858;2023-09-19T02:49:52;1.58;;;1.10;;
36189;SDS011;22232;50.914;13.858;2023-09-19T02:52:20;2.30;;;1.30;;
36189;SDS011;22232;50.914;13.858;2023-09-19T02:54:47;2.80;;;0.95;;
36189;SDS011;22232;50.914;13.858;2023-09-19T02:57:15;1.63;;;1.00;;
36189;SDS011;22232;50.914;13.858;2023-09-19T02:59:45;2.47;;;1.17;;
36189;SDS011;22232;50.914;13.858;2023-09-19T03:02:12;3.15;;;1.60;;
36189;SDS011;22232;50.914;13.858;2023-09-19T03:04:40;3.47;;;1.10;;
36189;SDS011;22232;50.914;13.858;2023-09-19T03:07:08;2.70;;;1.13;;
36189;SDS011;22232;50.914;13.858;2023-09-19T03:09:39;5.90;;;1.38;;
36189;SDS011;22232;50.914;13.858;2023-09-19T03:12:06;3.17;;;1.20;;
36189;SDS011;22232;50.914;13.858;2023-09-19T03:14:35;2.58;;;1.00;;
36189;SDS011;22232;50.914;13.858;2023-09-19T03:17:03;1.85;;;1.05;;
36189;SDS011;22232;50.914;13.858;2023-09-19T03:19:34;1.77;;;1.10;;
36189;SDS011;22232;50.914;13.858;2023-09-19T03:22:06;3.15;;;1.58;;
36189;SDS011;22232;50.914;13.858;2023-09-19T03:24:35;3.22;;;1.30;;
36189;SDS011;22232;50.914;13.858;2023-09-19T03:27:05;4.38;;;1.58;;
36189;SDS011;22232;50.914;13.858;2023-09-19T03:29:34;2.38;;;1.08;;
36189;SDS011;22232;50.914;13.858;2023-09-19T03:32:02;1.95;;;1.25;;
36189;SDS011;22232;50.914;13.858;2023-09-19T03:34:31;3.33;;;1.42;;
36189;SDS011;22232;50.914;13.858;2023-09-19T03:36:59;3.95;;;1.15;;
36189;SDS011;22232;50.914;13.858;2023-09-19T03:39:27;2.72;;;1.33;;
36189;SDS011;22232;50.914;13.858;2023-09-19T03:41:55;4.18;;;1.20;;
36189;SDS011;22232;50.914;13.858;2023-09-19T03:44:22;2.63;;;1.40;;
36189;SDS011;22232;50.914;13.858;2023-09-19T03:46:50;3.70;;;1.38;;
36189;SDS011;22232;50.914;13.858;2023-09-19T03:49:18;3.33;;;1.40;;
36189;SDS011;22232;50.914;13.858;2023-09-19T03:51:46;3.78;;;1.35;;
36189;SDS011;22232;50.914;13.858;2023-09-19T03:54:14;2.58;;;1.52;;
36189;SDS011;22232;50.914;13.858;2023-09-19T03:56:42;2.72;;;1.35;;
36189;SDS011;22232;50.914;13.858;2023-09-19T03:59:10;1.42;;;1.25;;
36189;SDS011;22232;50.914;13.858;2023-09-19T04:01:39;2.28;;;1.48;;
36189;SDS011;22232;50.914;13.858;2023-09-19T04:04:08;1.75;;;1.13;;
36189;SDS011;22232;50.914;13.858;2023-09-19T04:06:36;1.88;;;1.40;;
36189;SDS011;22232;50.914;13.858;2023-09-19T04:09:04;3.75;;;1.35;;
36189;SDS011;22232;50.914;13.858;2023-09-19T04:11:34;2.13;;;1.35;;
36189;SDS011;22232;50.914;13.858;2023-09-19T04:14:02;4.68;;;1.50;;
36189;SDS011;22232;50.914;13.858;2023-09-19T04:16:31;2.33;;;1.73;;
36189;SDS011;22232;50.914;13.858;2023-09-19T04:18:59;1.88;;;1.27;;
36189;SDS011;22232;50.914;13.858;2023-09-19T04:21:27;2.13;;;1.30;;
36189;SDS011;22232;50.914;13.858;2023-09-19T04:23:56;4.45;;;1.50;;
36189;SDS011;22232;50.914;13.858;2023-09-19T04:26:23;3.40;;;1.20;;
36189;SDS011;22232;50.914;13.858;2023-09-19T04:28:53;4.35;;;1.55;;
36189;SDS011;22232;50.914;13.858;2023-09-19T04:31:20;2.80;;;1.30;;
36189;SDS011;22232;50.914;13.858;2023-09-19T04:33:49;4.25;;;1.17;;
36189;SDS011;22232;50.914;13.858;2023-09-19T04:36:16;4.28;;;1.55;;
36189;SDS011;22232;50.914;13.858;2023-09-19T04:39:02;2.95;;;1.50;;
36189;SDS011;22232;50.914;13.858;2023-09-19T04:41:34;3.45;;;1.50;;
36189;SDS011;22232;50.914;13.858;2023-09-19T04:44:06;2.35;;;1.30;;
36189;SDS011;22232;50.914;13.858;2023-09-19T04:46:34;3.28;;;1.40;;
36189;SDS011;22232;50.914;13.858;2023-09-19T04:49:02;2.78;;;1.67;;
36189;SDS011;22232;50.914;13.858;2023-09-19T04:51:30;2.38;;;1.50;;
36189;SDS011;22232;50.914;13.858;2023-09-19T04:54:01;3.97;;;1.60;;
36189;SDS011;22232;50.914;13.858;2023-09-19T04:56:29;3.70;;;1.67;;
36189;SDS011;22232;50.914;13.858;2023-09-19T04:58:59;4.72;;;1.52;;
36189;SDS011;22232;50.914;13.858;2023-09-19T05:01:27;2.92;;;1.40;;
36189;SDS011;22232;50.914;13.858;2023-09-19T05:03:54;2.60;;;1.48;;
36189;SDS011;22232;50.914;13.858;2023-09-19T05:06:22;4.82;;;1.75;;
36189;SDS011;22232;50.914;13.858;2023-09-19T05:08:50;3.15;;;1.60;;
36189;SDS011;22232;50.914;13.858;2023-09-19T05:11:18;4.07;;;1.73;;
36189;SDS011;22232;50.914;13.858;2023-09-19T05:13:49;3.03;;;1.45;;
36189;SDS011;22232;50.914;13.858;2023-09-19T05:16:18;3.88;;;1.73;;
36189;SDS011;22232;50.914;13.858;2023-09-19T05:18:46;5.35;;;1.65;;
36189;SDS011;22232;50.914;13.858;2023-09-19T05:21:13;2.85;;;1.30;;
36189;SDS011;22232;50.914;13.858;2023-09-19T05:23:41;2.00;;;1.13;;
36189;SDS011;22232;50.914;13.858;2023-09-19T05:26:09;1.48;;;1.30;;
36189;SDS011;22232;50.914;13.858;2023-09-19T05:28:37;7.43;;;1.95;;
36189;SDS011;22232;50.914;13.858;2023-09-19T05:31:05;4.50;;;1.63;;
36189;SDS011;22232;50.914;13.858;2023-09-19T05:33:32;1.98;;;1.42;;
36189;SDS011;22232;50.914;13.858;2023-09-19T05:36:00;2.05;;;1.42;;
36189;SDS011;22232;50.914;13.858;2023-09-19T05:38:28;3.80;;;2.25;;
36189;SDS011;22232;50.914;13.858;2023-09-19T05:40:55;3.38;;;1.50;;
36189;SDS011;22232;50.914;13.858;2023-09-19T05:43:23;1.95;;;1.50;;
36189;SDS011;22232;50.914;13.858;2023-09-19T05:45:50;2.72;;;1.40;;
36189;SDS011;22232;50.914;13.858;2023-09-19T05:48:19;2.50;;;1.50;;
36189;SDS011;22232;50.914;13.858;2023-09-19T05:50:48;2.80;;;1.50;;
36189;SDS011;22232;50.914;13.858;2023-09-19T05:53:18;2.25;;;1.50;;
36189;SDS011;22232;50.914;13.858;2023-09-19T05:55:46;3.25;;;1.70;;
36189;SDS011;22232;50.914;13.858;2023-09-19T05:58:14;3.63;;;1.70;;
36189;SDS011;22232;50.914;13.858;2023-09-19T06:00:41;3.75;;;1.42;;
36189;SDS011;22232;50.914;13.858;2023-09-19T06:03:10;2.65;;;1.30;;
36189;SDS011;22232;50.914;13.858;2023-09-19T06:05:40;2.67;;;1.30;;
36189;SDS011;22232;50.914;13.858;2023-09-19T06:08:08;1.50;;;1.38;;
36189;SDS011;22232;50.914;13.858;2023-09-19T06:10:36;3.35;;;1.58;;
36189;SDS011;22232;50.914;13.858;2023-09-19T06:13:04;2.65;;;1.30;;
36189;SDS011;22232;50.914;13.858;2023-09-19T06:15:32;3.65;;;1.40;;
36189;SDS011;22232;50.914;13.858;2023-09-19T06:18:02;3.35;;;1.40;;
36189;SDS011;22232;50.914;13.858;2023-09-19T06:20:32;2.45;;;1.40;;
36189;SDS011;22232;50.914;13.858;2023-09-19T06:23:01;1.92;;;1.33;;
36189;SDS011;22232;50.914;13.858;2023-09-19T06:25:30;1.90;;;1.30;;
36189;SDS011;22232;50.914;13.858;2023-09-19T06:27:58;2.83;;;1.20;;
36189;SDS011;22232;50.914;13.858;2023-09-19T06:30:26;2.67;;;1.23;;
36189;SDS011;22232;50.914;13.858;2023-09-19T06:32:56;1.80;;;1.20;;
36189;SDS011;22232;50.914;13.858;2023-09-19T06:35:25;3.22;;;1.20;;
36189;SDS011;22232;50.914;13.858;2023-09-19T06:37:53;2.03;;;1.60;;
36189;SDS011;22232;50.914;13.858;2023-09-19T06:40:21;3.28;;;1.50;;
36189;SDS011;22232;50.914;13.858;2023-09-19T06:42:52;2.35;;;1.33;;
36189;SDS011;22232;50.914;13.858;2023-09-19T06:45:21;2.70;;;1.33;;
36189;SDS011;22232;50.914;13.858;2023-09-19T06:47:50;2.70;;;1.20;;
36189;SDS011;22232;50.914;13.858;2023-09-19T06:50:22;3.42;;;1.65;;
36189;SDS011;22232;50.914;13.858;2023-09-19T06:52:51;4.55;;;1.52;;
36189;SDS011;22232;50.914;13.858;2023-09-19T06:55:21;1.42;;;1.10;;
36189;SDS011;22232;50.914;13.858;2023-09-19T06:57:52;1.23;;;1.10;;
36189;SDS011;22232;50.914;13.858;2023-09-19T07:00:21;2.95;;;1.30;;
36189;SDS011;22232;50.914;13.858;2023-09-19T07:03:02;1.52;;;1.30;;
36189;SDS011;22232;50.914;13.858;2023-09-19T07:05:33;2.08;;;1.10;;
36189;SDS011;22232;50.914;13.858;2023-09-19T07:10:35;1.85;;;1.48;;
36189;SDS011;22232;50.914;13.858;2023-09-19T07:13:03;4.75;;;1.50;;
36189;SDS011;22232;50.914;13.858;2023-09-19T07:15:33;1.40;;;1.30;;
36189;SDS011;22232;50.914;13.858;2023-09-19T07:18:04;2.22;;;1.25;;
36189;SDS011;22232;50.914;13.858;2023-09-19T07:20:32;1.73;;;1.10;;
36189;SDS011;22232;50.914;13.858;2023-09-19T07:23:01;2.33;;;1.15;;
36189;SDS011;22232;50.914;13.858;2023-09-19T07:25:30;2.50;;;1.30;;
36189;SDS011;22232;50.914;13.858;2023-09-19T07:27:58;1.90;;;1.00;;
36189;SDS011;22232;50.914;13.858;2023-09-19T07:30:28;3.55;;;1.27;;
36189;SDS011;22232;50.914;13.858;2023-09-19T07:32:56;1.27;;;1.00;;
36189;SDS011;22232;50.914;13.858;2023-09-19T07:35:24;1.30;;;1.00;;
36189;SDS011;22232;50.914;13.858;2023-09-19T07:37:53;3.75;;;1.20;;
36189;SDS011;22232;50.914;13.858;2023-09-19T07:40:20;4.38;;;1.48;;
36189;SDS011;22232;50.914;13.858;2023-09-19T07:42:48;1.42;;;1.27;;
36189;SDS011;22232;50.914;13.858;2023-09-19T07:45:16;2.20;;;1.33;;
36189;SDS011;22232;50.914;13.858;2023-09-19T07:47:50;2.25;;;1.35;;
36189;SDS011;22232;50.914;13.858;2023-09-19T07:50:19;2.13;;;1.48;;
36189;SDS011;22232;50.914;13.858;2023-09-19T07:52:47;2.53;;;1.38;;
36189;SDS011;22232;50.914;13.858;2023-09-19T07:55:18;2.38;;;1.17;;
36189;SDS011;22232;50.914;13.858;2023-09-19T07:57:50;2.35;;;1.50;;
36189;SDS011;22232;50.914;13.858;2023-09-19T08:00:19;2.88;;;1.35;;
36189;SDS011;22232;50.914;13.858;2023-09-19T08:02:47;2.67;;;1.20;;
36189;SDS011;22232;50.914;13.858;2023-09-19T08:05:27;2.00;;;1.20;;
36189;SDS011;22232;50.914;13.858;2023-09-19T08:07:54;1.42;;;1.33;;
36189;SDS011;22232;50.914;13.858;2023-09-19T08:10:24;5.00;;;1.20;;
36189;SDS011;22232;50.914;13.858;2023-09-19T08:12:55;3.50;;;1.50;;
36189;SDS011;22232;50.914;13.858;2023-09-19T08:15:25;5.45;;;1.10;;
36189;SDS011;22232;50.914;13.858;2023-09-19T08:17:53;5.65;;;1.42;;
36189;SDS011;22232;50.914;13.858;2023-09-19T08:20:20;1.73;;;1.10;;
36189;SDS011;22232;50.914;13.858;2023-09-19T08:22:49;1.15;;;1.02;;
36189;SDS011;22232;50.914;13.858;2023-09-19T08:25:20;2.03;;;1.10;;
36189;SDS011;22232;50.914;13.858;2023-09-19T08:27:49;1.35;;;0.98;;
36189;SDS011;22232;50.914;13.858;2023-09-19T08:30:17;2.72;;;0.95;;
36189;SDS011;22232;50.914;13.858;2023-09-19T08:33:01;4.03;;;1.13;;
36189;SDS011;22232;50.914;13.858;2023-09-19T08:35:32;2.25;;;1.00;;
36189;SDS011;22232;50.914;13.858;2023-09-19T08:38:00;3.40;;;1.10;;
36189;SDS011;22232;50.914;13.858;2023-09-19T08:40:31;2.42;;;1.25;;
36189;SDS011;22232;50.914;13.858;2023-09-19T08:43:00;3.17;;;0.98;;
36189;SDS011;22232;50.914;13.858;2023-09-19T08:45:28;3.20;;;1.10;;
36189;SDS011;22232;50.914;13.858;2023-09-19T08:48:11;1.17;;;0.98;;
36189;SDS011;22232;50.914;13.858;2023-09-19T08:56:06;1.80;;;0.98;;
36189;SDS011;22232;50.914;13.858;2023-09-19T08:58:57;2.88;;;1.27;;
36189;SDS011;22232;50.914;13.858;2023-09-19T09:01:35;3.20;;;1.20;;
36189;SDS011;22232;50.914;13.858;2023-09-19T09:04:05;1.85;;;1.13;;
36189;SDS011;22232;50.914;13.858;2023-09-19T09:06:41;1.77;;;1.02;;
36189;SDS011;22232;50.914;13.858;2023-09-19T09:09:12;2.33;;;1.20;;
36189;SDS011;22232;50.914;13.858;2023-09-19T09:11:39;1.10;;;1.00;;
36189;SDS011;22232;50.914;13.858;2023-09-19T09:14:07;2.53;;;1.30;;
36189;SDS011;22232;50.914;13.858;2023-09-19T09:16:36;2.33;;;1.20;;
36189;SDS011;22232;50.914;13.858;2023-09-19T09:19:04;1.23;;;0.98;;
36189;SDS011;22232;50.914;13.858;2023-09-19T09:21:32;1.33;;;1.17;;
36189;SDS011;22232;50.914;13.858;2023-09-19T09:26:56;4.20;;;1.30;;
36189;SDS011;22232;50.914;13.858;2023-09-19T09:29:41;2.90;;;1.17;;
36189;SDS011;22232;50.914;13.858;2023-09-19T09:32:18;3.50;;;1.30;;
36189;SDS011;22232;50.914;13.858;2023-09-19T09:37:19;1.50;;;0.90;;
36189;SDS011;22232;50.914;13.858;2023-09-19T09:39:50;4.78;;;1.60;;
36189;SDS011;22232;50.914;13.858;2023-09-19T09:42:35;1.95;;;1.30;;
36189;SDS011;22232;50.914;13.858;2023-09-19T09:47:44;1.77;;;1.27;;
36189;SDS011;22232;50.914;13.858;2023-09-19T09:50:38;2.15;;;1.30;;
36189;SDS011;22232;50.914;13.858;2023-09-19T09:53:24;1.33;;;1.05;;
36189;SDS011;22232;50.914;13.858;2023-09-19T09:58:34;2.30;;;1.20;;
36189;SDS011;22232;50.914;13.858;2023-09-19T10:01:04;1.13;;;0.93;;
36189;SDS011;22232;50.914;13.858;2023-09-19T10:03:42;1.42;;;1.10;;
36189;SDS011;22232;50.914;13.858;2023-09-19T10:06:15;4.97;;;1.33;;
36189;SDS011;22232;50.914;13.858;2023-09-19T10:09:03;2.10;;;0.90;;
36189;SDS011;22232;50.914;13.858;2023-09-19T10:11:46;2.38;;;1.10;;
36189;SDS011;22232;50.914;13.858;2023-09-19T10:14:27;2.47;;;1.20;;
36189;SDS011;22232;50.914;13.858;2023-09-19T10:16:59;2.35;;;0.85;;
36189;SDS011;22232;50.914;13.858;2023-09-19T10:19:40;1.55;;;1.00;;
36189;SDS011;22232;50.914;13.858;2023-09-19T10:22:13;0.82;;;0.77;;
36189;SDS011;22232;50.914;13.858;2023-09-19T10:24:49;2.30;;;1.00;;
36189;SDS011;22232;50.914;13.858;2023-09-19T10:27:29;2.38;;;1.05;;
36189;SDS011;22232;50.914;13.858;2023-09-19T10:30:05;0.80;;;0.80;;
36189;SDS011;22232;50.914;13.858;2023-09-19T10:32:35;1.30;;;0.80;;
36189;SDS011;22232;50.914;13.858;2023-09-19T10:35:08;0.95;;;0.90;;
36189;SDS011;22232;50.914;13.858;2023-09-19T10:37:40;1.92;;;0.75;;
36189;SDS011;22232;50.914;13.858;2023-09-19T10:40:12;1.98;;;1.20;;
36189;SDS011;22232;50.914;13.858;2023-09-19T10:42:43;1.65;;;1.10;;
36189;SDS011;22232;50.914;13.858;2023-09-19T10:45:15;3.13;;;0.82;;
36189;SDS011;22232;50.914;13.858;2023-09-19T10:47:47;1.58;;;1.00;;
36189;SDS011;22232;50.914;13.858;2023-09-19T10:50:21;1.35;;;0.70;;
36189;SDS011;22232;50.914;13.858;2023-09-19T10:52:49;1.02;;;0.88;;
36189;SDS011;22232;50.914;13.858;2023-09-19T10:55:25;1.75;;;1.05;;
36189;SDS011;22232;50.914;13.858;2023-09-19T10:57:56;1.38;;;0.90;;
36189;SDS011;22232;50.914;13.858;2023-09-19T11:00:53;1.33;;;1.02;;
36189;SDS011;22232;50.914;13.858;2023-09-19T11:03:29;5.95;;;1.38;;
36189;SDS011;22232;50.914;13.858;2023-09-19T11:11:43;1.90;;;1.00;;
36189;SDS011;22232;50.914;13.858;2023-09-19T11:30:35;2.72;;;1.15;;
36189;SDS011;22232;50.914;13.858;2023-09-19T11:36:09;3.20;;;1.33;;
36189;SDS011;22232;50.914;13.858;2023-09-19T11:46:32;3.38;;;1.42;;
36189;SDS011;22232;50.914;13.858;2023-09-19T11:49:08;4.05;;;1.13;;
36189;SDS011;22232;50.914;13.858;2023-09-19T11:51:46;3.92;;;1.20;;
36189;SDS011;22232;50.914;13.858;2023-09-19T11:54:18;3.15;;;1.30;;
36189;SDS011;22232;50.914;13.858;2023-09-19T11:56:49;1.50;;;1.27;;
36189;SDS011;22232;50.914;13.858;2023-09-19T11:59:21;2.72;;;1.33;;
36189;SDS011;22232;50.914;13.858;2023-09-19T12:01:58;3.85;;;1.02;;
36189;SDS011;22232;50.914;13.858;2023-09-19T12:04:37;1.38;;;1.00;;
36189;SDS011;22232;50.914;13.858;2023-09-19T12:07:09;1.83;;;1.00;;
36189;SDS011;22232;50.914;13.858;2023-09-19T12:09:44;2.55;;;1.60;;
36189;SDS011;22232;50.914;13.858;2023-09-19T12:12:24;2.08;;;1.20;;
36189;SDS011;22232;50.914;13.858;2023-09-19T12:14:55;2.15;;;1.23;;
36189;SDS011;22232;50.914;13.858;2023-09-19T12:17:36;2.08;;;1.15;;
36189;SDS011;22232;50.914;13.858;2023-09-19T12:20:06;1.00;;;0.93;;
36189;SDS011;22232;50.914;13.858;2023-09-19T12:22:44;2.33;;;1.10;;
36189;SDS011;22232;50.914;13.858;2023-09-19T12:25:14;2.47;;;1.50;;
36189;SDS011;22232;50.914;13.858;2023-09-19T12:27:44;1.73;;;1.48;;
36189;SDS011;22232;50.914;13.858;2023-09-19T12:30:21;1.90;;;1.30;;
36189;SDS011;22232;50.914;13.858;2023-09-19T12:32:55;3.17;;;1.50;;
36189;SDS011;22232;50.914;13.858;2023-09-19T12:35:27;2.63;;;1.15;;
36189;SDS011;22232;50.914;13.858;2023-09-19T12:38:02;2.78;;;1.10;;
36189;SDS011;22232;50.914;13.858;2023-09-19T12:40:31;2.95;;;1.58;;
36189;SDS011;22232;50.914;13.858;2023-09-19T12:43:01;3.05;;;1.45;;
36189;SDS011;22232;50.914;13.858;2023-09-19T12:45:32;3.70;;;1.50;;
36189;SDS011;22232;50.914;13.858;2023-09-19T12:48:25;3.28;;;1.80;;
36189;SDS011;22232;50.914;13.858;2023-09-19T12:53:37;3.65;;;1.50;;
36189;SDS011;22232;50.914;13.858;2023-09-19T12:56:14;2.17;;;1.30;;
36189;SDS011;22232;50.914;13.858;2023-09-19T13:01:25;2.53;;;1.50;;
36189;SDS011;22232;50.914;13.858;2023-09-19T13:04:13;2.70;;;1.70;;
36189;SDS011;22232;50.914;13.858;2023-09-19T13:06:51;2.92;;;1.67;;
36189;SDS011;22232;50.914;13.858;2023-09-19T13:09:20;2.75;;;1.70;;
36189;SDS011;22232;50.914;13.858;2023-09-19T13:11:50;4.10;;;1.75;;
36189;SDS011;22232;50.914;13.858;2023-09-19T13:14:27;3.25;;;1.38;;
36189;SDS011;22232;50.914;13.858;2023-09-19T13:19:43;3.08;;;1.48;;
36189;SDS011;22232;50.914;13.858;2023-09-19T13:25:07;3.33;;;1.30;;
36189;SDS011;22232;50.914;13.858;2023-09-19T13:27:41;2.75;;;1.13;;
36189;SDS011;22232;50.914;13.858;2023-09-19T13:30:12;1.80;;;1.10;;
36189;SDS011;22232;50.914;13.858;2023-09-19T13:32:40;7.95;;;1.52;;
36189;SDS011;22232;50.914;13.858;2023-09-19T13:35:10;3.05;;;1.40;;
36189;SDS011;22232;50.914;13.858;2023-09-19T13:37:40;6.30;;;1.42;;
36189;SDS011;22232;50.914;13.858;2023-09-19T13:40:09;3.25;;;1.25;;
36189;SDS011;22232;50.914;13.858;2023-09-19T13:42:37;3.13;;;1.58;;
36189;SDS011;22232;50.914;13.858;2023-09-19T13:45:05;2.25;;;1.50;;
36189;SDS011;22232;50.914;13.858;2023-09-19T13:47:39;4.10;;;1.67;;
36189;SDS011;22232;50.914;13.858;2023-09-19T13:50:08;2.40;;;1.70;;
36189;SDS011;22232;50.914;13.858;2023-09-19T13:52:36;2.67;;;1.70;;
36189;SDS011;22232;50.914;13.858;2023-09-19T13:55:05;3.70;;;1.60;;
36189;SDS011;22232;50.914;13.858;2023-09-19T13:57:34;3.25;;;1.77;;
36189;SDS011;22232;50.914;13.858;2023-09-19T14:00:02;4.13;;;1.77;;
36189;SDS011;22232;50.914;13.858;2023-09-19T14:02:37;2.88;;;1.75;;
36189;SDS011;22232;50.914;13.858;2023-09-19T14:05:06;2.35;;;1.50;;
36189;SDS011;22232;50.914;13.858;2023-09-19T14:07:34;3.85;;;1.70;;
36189;SDS011;22232;50.914;13.858;2023-09-19T14:10:04;3.78;;;1.88;;
36189;SDS011;22232;50.914;13.858;2023-09-19T14:12:35;2.58;;;1.70;;
36189;SDS011;22232;50.914;13.858;2023-09-19T14:15:03;2.00;;;1.80;;
36189;SDS011;22232;50.914;13.858;2023-09-19T14:17:37;3.92;;;1.85;;
36189;SDS011;22232;50.914;13.858;2023-09-19T14:20:07;3.22;;;1.85;;
36189;SDS011;22232;50.914;13.858;2023-09-19T14:22:37;2.25;;;1.60;;
36189;SDS011;22232;50.914;13.858;2023-09-19T14:25:05;4.18;;;1.50;;
36189;SDS011;22232;50.914;13.858;2023-09-19T14:27:33;3.15;;;1.55;;
36189;SDS011;22232;50.914;13.858;2023-09-19T14:30:01;3.15;;;1.10;;
36189;SDS011;22232;50.914;13.858;2023-09-19T14:32:28;2.65;;;1.60;;
36189;SDS011;22232;50.914;13.858;2023-09-19T14:34:56;3.92;;;1.85;;
36189;SDS011;22232;50.914;13.858;2023-09-19T14:37:23;2.42;;;1.77;;
36189;SDS011;22232;50.914;13.858;2023-09-19T14:39:51;2.33;;;1.70;;
36189;SDS011;22232;50.914;13.858;2023-09-19T14:42:19;2.50;;;1.88;;
36189;SDS011;22232;50.914;13.858;2023-09-19T14:44:47;3.33;;;1.85;;
36189;SDS011;22232;50.914;13.858;2023-09-19T14:47:15;3.15;;;1.67;;
36189;SDS011;22232;50.914;13.858;2023-09-19T14:49:44;2.30;;;1.58;;
36189;SDS011;22232;50.914;13.858;2023-09-19T14:52:12;6.40;;;1.70;;
36189;SDS011;22232;50.914;13.858;2023-09-19T14:54:43;6.60;;;2.03;;
36189;SDS011;22232;50.914;13.858;2023-09-19T14:57:10;2.75;;;1.58;;
36189;SDS011;22232;50.914;13.858;2023-09-19T14:59:40;2.60;;;2.00;;
36189;SDS011;22232;50.914;13.858;2023-09-19T15:02:08;4.43;;;1.60;;
36189;SDS011;22232;50.914;13.858;2023-09-19T15:04:36;2.92;;;1.75;;
36189;SDS011;22232;50.914;13.858;2023-09-19T15:07:08;2.17;;;1.95;;
36189;SDS011;22232;50.914;13.858;2023-09-19T15:09:36;1.98;;;1.63;;
36189;SDS011;22232;50.914;13.858;2023-09-19T15:12:04;2.30;;;1.80;;
36189;SDS011;22232;50.914;13.858;2023-09-19T15:14:32;2.95;;;1.65;;
36189;SDS011;22232;50.914;13.858;2023-09-19T15:16:59;2.65;;;1.92;;
36189;SDS011;22232;50.914;13.858;2023-09-19T15:19:27;3.00;;;1.90;;
36189;SDS011;22232;50.914;13.858;2023-09-19T15:21:54;2.20;;;1.50;;
36189;SDS011;22232;50.914;13.858;2023-09-19T15:24:22;3.97;;;1.50;;
36189;SDS011;22232;50.914;13.858;2023-09-19T15:26:50;1.92;;;1.60;;
36189;SDS011;22232;50.914;13.858;2023-09-19T15:29:18;2.10;;;1.40;;
36189;SDS011;22232;50.914;13.858;2023-09-19T15:31:47;5.88;;;1.65;;
36189;SDS011;22232;50.914;13.858;2023-09-19T15:34:14;2.45;;;1.58;;
36189;SDS011;22232;50.914;13.858;2023-09-19T15:36:43;3.20;;;1.67;;
36189;SDS011;22232;50.914;13.858;2023-09-19T15:39:11;1.92;;;1.67;;
36189;SDS011;22232;50.914;13.858;2023-09-19T15:41:40;1.92;;;1.67;;
36189;SDS011;22232;50.914;13.858;2023-09-19T15:44:12;5.95;;;1.83;;
36189;SDS011;22232;50.914;13.858;2023-09-19T15:46:42;4.32;;;1.67;;
36189;SDS011;22232;50.914;13.858;2023-09-19T15:49:10;4.45;;;1.58;;
36189;SDS011;22232;50.914;13.858;2023-09-19T15:51:38;2.45;;;1.60;;
36189;SDS011;22232;50.914;13.858;2023-09-19T15:54:09;2.55;;;1.50;;
36189;SDS011;22232;50.914;13.858;2023-09-19T15:56:41;3.15;;;1.70;;
36189;SDS011;22232;50.914;13.858;2023-09-19T15:59:10;2.17;;;1.50;;
36189;SDS011;22232;50.914;13.858;2023-09-19T16:01:41;3.22;;;1.63;;
36189;SDS011;22232;50.914;13.858;2023-09-19T16:04:11;3.25;;;2.20;;
36189;SDS011;22232;50.914;13.858;2023-09-19T16:06:40;3.28;;;1.75;;
36189;SDS011;22232;50.914;13.858;2023-09-19T16:09:08;3.95;;;2.25;;
36189;SDS011;22232;50.914;13.858;2023-09-19T16:11:37;2.50;;;2.00;;
36189;SDS011;22232;50.914;13.858;2023-09-19T16:14:05;3.88;;;2.10;;
36189;SDS011;22232;50.914;13.858;2023-09-19T16:16:33;3.65;;;2.17;;
36189;SDS011;22232;50.914;13.858;2023-09-19T16:19:02;2.75;;;1.98;;
36189;SDS011;22232;50.914;13.858;2023-09-19T16:21:34;5.35;;;2.17;;